Time;durP1;ratioP1;P1;durP2;ratioP2;P2;SDS_P1;SDS_P2;PMS_P1;PMS_P2;Temp;Humidity;BMP_temperature;BMP_pressure;BME280_temperature;BME280_humidity;BME280_pressure;Samples;Min_cycle;Max_cycle;Signal;HPM_P1;HPM_P2
2022/02/08 00:02:01;;;;;;;5.38;1.05;;;11.00;97.50;;;;;;4968924;28;20362;-64
2022/02/08 00:04:28;;;;;;;3.13;1.05;;;11.10;97.50;;;;;;4968670;28;20109;-65
2022/02/08 00:06:55;;;;;;;9.30;1.27;;;11.00;96.90;;;;;;4969235;28;20078;-65
2022/02/08 00:09:24;;;;;;;6.20;1.48;;;11.10;97.60;;;;;;4968648;28;20498;-65
2022/02/08 00:11:51;;;;;;;7.25;1.35;;;11.10;97.70;;;;;;4969240;28;20112;-65
2022/02/08 00:14:17;;;;;;;2.72;0.80;;;11.10;97.40;;;;;;4968590;28;20082;-65
2022/02/08 00:16:44;;;;;;;5.70;1.10;;;11.10;97.40;;;;;;4968864;28;20145;-65
2022/02/08 00:19:12;;;;;;;5.90;0.95;;;11.00;97.40;;;;;;4968868;28;20085;-65
2022/02/08 00:21:39;;;;;;;7.75;1.45;;;11.00;97.40;;;;;;4969147;28;20051;-65
2022/02/08 00:24:06;;;;;;;4.30;0.82;;;11.00;97.50;;;;;;4968887;28;20085;-65
2022/02/08 00:26:33;;;;;;;4.72;1.13;;;11.00;97.50;;;;;;4968871;28;20129;-65
2022/02/08 00:28:59;;;;;;;5.63;1.05;;;11.00;97.30;;;;;;4968558;28;20050;-64
2022/02/08 00:31:26;;;;;;;5.85;1.45;;;11.00;97.50;;;;;;4968667;28;20082;-65
2022/02/08 00:33:53;;;;;;;5.88;1.30;;;10.90;97.40;;;;;;4968391;28;20047;-65
2022/02/08 00:36:20;;;;;;;3.38;1.00;;;10.90;97.70;;;;;;4968745;28;20109;-65
2022/02/08 00:38:48;;;;;;;5.82;2.13;;;10.90;97.60;;;;;;4968651;28;20042;-65
2022/02/08 00:41:15;;;;;;;6.72;1.30;;;10.90;97.60;;;;;;4968813;28;20082;-65
2022/02/08 00:43:58;;;;;;;9.60;1.40;;;10.90;97.50;;;;;;4968759;28;20417;-65
2022/02/08 00:46:35;;;;;;;8.50;1.25;;;10.90;97.60;;;;;;4972156;28;20134;-65
2022/02/08 00:49:04;;;;;;;4.95;1.13;;;10.90;97.70;;;;;;4972355;28;20089;-65
2022/02/08 00:51:53;;;;;;;4.20;1.10;;;10.90;97.60;;;;;;4972633;28;20042;-65
2022/02/08 00:54:19;;;;;;;6.88;1.48;;;10.90;97.60;;;;;;4972413;28;20121;-66
2022/02/08 00:56:47;;;;;;;6.85;1.08;;;10.90;97.50;;;;;;4972070;28;20082;-65
2022/02/08 00:59:14;;;;;;;6.80;1.30;;;10.90;97.80;;;;;;4972712;28;20043;-65
2022/02/08 01:01:41;;;;;;;5.10;1.10;;;10.90;97.50;;;;;;4971949;28;20093;-65
2022/02/08 01:04:08;;;;;;;3.28;0.90;;;10.90;97.70;;;;;;4972516;28;20490;-65
2022/02/08 01:06:36;;;;;;;7.00;0.95;;;10.90;97.80;;;;;;4972017;28;20089;-64
2022/02/08 01:09:34;;;;;;;4.45;1.00;;;10.90;97.90;;;;;;4970968;28;20050;-65
2022/02/08 01:11:55;;;;;;;4.40;0.90;;;10.90;97.80;;;;;;4970846;28;20145;-65
2022/02/08 01:14:23;;;;;;;3.95;0.90;;;10.90;97.80;;;;;;4970796;28;20498;-64
2022/02/08 01:16:51;;;;;;;7.53;0.82;;;10.90;97.90;;;;;;4609725;28;9999957;-65
2022/02/08 01:19:20;;;;;;;2.35;0.50;;;10.80;97.90;;;;;;4970622;28;20639;-65
2022/02/08 01:21:47;;;;;;;6.97;0.90;;;10.90;97.90;;;;;;4971334;28;20090;-66
2022/02/08 01:24:14;;;;;;;6.22;1.60;;;10.90;97.90;;;;;;4972181;28;20093;-65
2022/02/08 01:26:48;;;;;;;4.93;1.08;;;10.80;98.00;;;;;;4971761;28;20058;-65
2022/02/08 01:29:36;;;;;;;8.20;1.25;;;10.80;98.00;;;;;;4972260;28;20058;-65
2022/02/08 01:32:57;;;;;;;6.60;0.80;;;10.80;98.00;;;;;;4971276;28;20109;-65
2022/02/08 01:37:41;;;;;;;4.28;0.93;;;10.80;97.80;;;;;;4968359;28;20055;-66
2022/02/08 01:50:30;;;;;;;2.88;1.02;;;10.80;97.40;;;;;;4979458;28;20275;-64
2022/02/08 01:52:56;;;;;;;5.97;1.00;;;10.80;97.40;;;;;;4977914;28;20160;-65
2022/02/08 01:55:23;;;;;;;4.03;1.08;;;10.80;97.40;;;;;;4972724;28;20109;-65
2022/02/08 01:58:10;;;;;;;1.98;0.73;;;10.80;97.40;;;;;;4970814;28;20522;-65
2022/02/08 02:00:37;;;;;;;3.08;1.00;;;10.90;97.60;;;;;;4971636;28;20090;-65
2022/02/08 02:03:04;;;;;;;3.67;0.55;;;10.80;97.50;;;;;;4970064;28;20401;-65
2022/02/08 02:05:31;;;;;;;5.57;1.52;;;10.80;97.50;;;;;;4970554;28;20051;-66
2022/02/08 02:07:59;;;;;;;3.60;0.90;;;10.80;97.60;;;;;;4970554;28;20059;-65
2022/02/08 02:10:26;;;;;;;2.92;0.77;;;10.80;97.60;;;;;;4969854;28;20494;-65
2022/02/08 02:12:58;;;;;;;6.03;1.33;;;10.80;97.50;;;;;;4953415;28;20043;-65
2022/02/08 02:15:25;;;;;;;5.32;0.85;;;10.80;97.50;;;;;;4971152;28;20542;-65
2022/02/08 02:17:52;;;;;;;5.63;0.65;;;10.90;97.50;;;;;;4971029;28;20050;-65
2022/02/08 02:20:20;;;;;;;2.63;0.70;;;10.80;97.50;;;;;;4971035;28;20530;-65
2022/02/08 02:22:48;;;;;;;4.85;1.27;;;10.80;97.70;;;;;;4970837;28;20446;-66
2022/02/08 02:25:25;;;;;;;5.82;1.80;;;10.80;97.70;;;;;;4970796;28;20109;-65
2022/02/08 02:27:57;;;;;;;8.07;1.00;;;10.80;97.60;;;;;;4970762;28;20047;-65
2022/02/08 02:30:24;;;;;;;1.38;0.70;;;10.80;97.70;;;;;;4960569;28;20106;-64
2022/02/08 02:32:52;;;;;;;2.28;0.55;;;10.90;97.70;;;;;;4970293;28;20129;-64
2022/02/08 02:35:19;;;;;;;2.60;0.80;;;10.90;97.60;;;;;;4970425;28;20066;-65
2022/02/08 02:37:57;;;;;;;5.72;0.90;;;10.90;97.70;;;;;;4970557;28;20137;-65
2022/02/08 02:40:24;;;;;;;5.22;1.23;;;10.90;97.60;;;;;;4969561;28;20105;-65
2022/02/08 02:42:53;;;;;;;6.75;1.38;;;10.80;97.50;;;;;;4969943;28;20109;-66
2022/02/08 02:45:21;;;;;;;9.80;0.90;;;10.90;97.70;;;;;;4969871;28;20097;-64
2022/02/08 02:47:52;;;;;;;6.90;1.10;;;10.90;97.60;;;;;;4971095;28;20462;-65
2022/02/08 02:50:19;;;;;;;3.88;0.80;;;10.90;97.50;;;;;;4969714;28;20043;-65
2022/02/08 02:52:46;;;;;;;4.75;1.08;;;10.90;97.50;;;;;;4970133;28;20113;-65
2022/02/08 02:55:15;;;;;;;3.47;0.90;;;10.90;97.60;;;;;;4970136;28;20055;-65
2022/02/08 02:57:47;;;;;;;5.00;1.33;;;10.80;97.70;;;;;;4970673;28;20094;-66
2022/02/08 03:00:28;;;;;;;6.18;0.98;;;10.80;97.70;;;;;;4968476;28;20078;-65
2022/02/08 03:03:10;;;;;;;7.22;1.15;;;10.80;97.70;;;;;;4949776;29;20055;-66
2022/02/08 03:17:25;;;;;;;5.25;0.93;;;10.80;97.80;;;;;;4967882;28;20054;-65
2022/02/08 03:19:26;;;;;;;5.47;0.80;;;10.80;97.80;;;;;;4969659;28;20657;-65
2022/02/08 03:21:53;;;;;;;5.88;1.02;;;10.80;97.70;;;;;;4969757;28;20078;-65
2022/02/08 03:24:19;;;;;;;3.53;1.15;;;10.80;97.80;;;;;;4969506;28;20051;-64
2022/02/08 03:26:46;;;;;;;6.80;1.02;;;10.80;97.80;;;;;;4948747;28;20051;-64
2022/02/08 03:29:13;;;;;;;3.90;1.10;;;10.80;97.90;;;;;;4970199;28;20054;-66
2022/02/08 03:31:40;;;;;;;7.25;1.02;;;10.80;97.90;;;;;;4968928;28;20051;-68
2022/02/08 03:34:06;;;;;;;4.57;0.98;;;10.80;97.90;;;;;;4969755;28;20130;-65
2022/02/08 03:36:33;;;;;;;8.65;1.83;;;10.80;97.80;;;;;;4969304;28;20552;-65
2022/02/08 03:39:13;;;;;;;5.03;0.77;;;10.80;97.90;;;;;;4969646;28;20574;-65
2022/02/08 03:41:45;;;;;;;2.92;0.73;;;10.80;97.80;;;;;;4969022;28;20082;-66
2022/02/08 03:44:18;;;;;;;3.80;1.55;;;10.80;97.70;;;;;;4969671;28;20280;-65
2022/02/08 03:46:45;;;;;;;4.50;0.68;;;10.80;97.70;;;;;;4969413;28;20074;-65
2022/02/08 03:49:11;;;;;;;7.25;1.10;;;10.90;97.70;;;;;;4967876;28;20109;-64
2022/02/08 03:51:50;;;;;;;4.53;0.80;;;10.80;97.50;;;;;;4968816;28;20352;-65
2022/02/08 03:54:17;;;;;;;2.97;0.63;;;10.90;97.60;;;;;;4969418;28;20047;-65
2022/02/08 03:56:44;;;;;;;6.63;1.23;;;10.90;97.30;;;;;;4969108;28;20114;-64
2022/02/08 03:59:14;;;;;;;4.57;1.10;;;10.90;97.40;;;;;;4969544;28;20108;-64
2022/02/08 04:09:58;;;;;;;4.50;0.93;;;10.90;97.30;;;;;;4970006;28;20065;-64
2022/02/08 04:12:39;;;;;;;9.80;1.00;;;10.90;97.20;;;;;;4969448;28;20047;-65
2022/02/08 04:41:36;;;;;;;1.77;0.80;;;11.00;96.30;;;;;;4972747;28;20074;-65
2022/02/08 04:44:21;;;;;;;4.05;1.35;;;11.00;96.10;;;;;;4972308;28;20105;-65
2022/02/08 04:47:05;;;;;;;3.38;0.70;;;11.00;96.00;;;;;;4973087;28;20134;-64
2022/02/08 04:49:32;;;;;;;5.35;0.93;;;11.00;96.10;;;;;;4972833;28;20121;-65
2022/02/08 04:52:03;;;;;;;5.13;0.90;;;11.00;96.00;;;;;;4973231;28;20556;-68
2022/02/08 04:54:41;;;;;;;9.18;1.98;;;11.00;96.10;;;;;;4972316;28;20502;-64
2022/02/08 04:57:17;;;;;;;5.45;1.10;;;11.00;96.00;;;;;;4972930;28;20130;-65
2022/02/08 05:26:32;;;;;;;11.75;1.73;;;11.00;95.90;;;;;;4971331;28;20096;-64
2022/02/08 05:27:57;;;;;;;5.38;0.80;;;11.00;95.60;;;;;;4971821;28;20510;-64
2022/02/08 05:49:02;;;;;;;7.57;1.65;;;11.10;95.70;;;;;;4971654;28;20090;-64
2022/02/08 05:51:55;;;;;;;9.63;2.53;;;11.10;95.80;;;;;;4970121;28;20502;-64
2022/02/08 05:54:16;;;;;;;8.80;1.25;;;11.10;95.60;;;;;;4971368;28;20074;-64
2022/02/08 05:56:48;;;;;;;11.88;1.42;;;11.00;95.60;;;;;;4969776;28;20057;-64
2022/02/08 05:59:15;;;;;;;4.88;0.93;;;11.10;95.50;;;;;;4970971;28;20415;-64
2022/02/08 06:01:42;;;;;;;1.77;0.60;;;11.10;95.60;;;;;;4970832;28;20126;-64
2022/02/08 06:04:10;;;;;;;5.47;1.02;;;11.00;95.40;;;;;;4969647;28;20078;-64
2022/02/08 06:06:37;;;;;;;4.07;1.02;;;11.00;95.50;;;;;;4970510;28;20422;-65
2022/02/08 06:09:04;;;;;;;7.82;0.98;;;11.00;95.50;;;;;;4971420;28;20187;-64
2022/02/08 06:11:35;;;;;;;8.88;1.58;;;11.00;95.30;;;;;;4970360;28;20125;-64
2022/02/08 06:14:03;;;;;;;6.10;1.02;;;11.10;95.50;;;;;;4970336;28;20051;-63
2022/02/08 06:16:31;;;;;;;5.93;0.82;;;11.00;95.50;;;;;;4969431;28;20208;-63
2022/02/08 06:18:58;;;;;;;5.38;1.08;;;11.00;95.30;;;;;;4970646;28;20129;-63
2022/02/08 06:21:25;;;;;;;6.93;1.33;;;11.00;95.10;;;;;;4970694;28;20097;-64
2022/02/08 06:23:51;;;;;;;3.95;0.80;;;11.00;95.40;;;;;;4970721;28;20184;-64
2022/02/08 06:26:21;;;;;;;5.70;1.20;;;11.00;95.20;;;;;;4970348;28;20039;-64
2022/02/08 06:28:56;;;;;;;8.80;1.58;;;11.10;95.50;;;;;;4971205;28;20082;-64
2022/02/08 06:31:23;;;;;;;4.85;1.02;;;10.90;95.40;;;;;;4970405;28;20043;-64
2022/02/08 06:33:50;;;;;;;3.78;0.93;;;11.00;95.00;;;;;;4953811;28;20046;-64
2022/02/08 06:36:17;;;;;;;4.32;1.42;;;11.00;95.10;;;;;;4970891;28;20046;-64
2022/02/08 06:38:43;;;;;;;8.15;0.88;;;11.00;95.30;;;;;;4958433;28;20078;-64
2022/02/08 06:41:12;;;;;;;5.75;1.65;;;11.00;95.30;;;;;;4979097;28;20051;-63
2022/02/08 06:43:38;;;;;;;4.45;1.02;;;11.00;94.90;;;;;;4970009;28;20107;-65
2022/02/08 06:46:05;;;;;;;5.70;1.33;;;11.00;95.20;;;;;;4970698;28;20046;-65
2022/02/08 06:48:32;;;;;;;4.40;1.95;;;11.00;94.80;;;;;;4969641;28;20054;-66
2022/02/08 06:50:59;;;;;;;3.53;0.80;;;11.00;95.30;;;;;;4970120;28;20046;-65
2022/02/08 06:53:26;;;;;;;7.35;1.75;;;11.00;95.10;;;;;;4970294;28;20102;-65
2022/02/08 06:55:53;;;;;;;5.72;1.63;;;11.00;95.00;;;;;;4970154;28;20085;-67
2022/02/08 06:58:24;;;;;;;9.90;3.33;;;11.00;94.80;;;;;;4969873;28;20059;-67
2022/02/08 07:00:51;;;;;;;6.70;1.17;;;11.00;95.30;;;;;;4970571;28;20055;-66
2022/02/08 07:03:18;;;;;;;3.97;1.40;;;11.00;95.20;;;;;;4968638;28;20046;-66
2022/02/08 07:05:45;;;;;;;7.95;0.80;;;11.00;95.20;;;;;;4970877;28;20082;-67
2022/02/08 07:08:11;;;;;;;9.52;1.20;;;10.90;95.20;;;;;;4970377;28;20081;-67
2022/02/08 07:10:39;;;;;;;8.45;1.40;;;10.90;95.30;;;;;;4952921;28;20093;-67
2022/02/08 07:13:07;;;;;;;12.32;1.33;;;10.90;95.30;;;;;;4969624;28;20050;-66
2022/02/08 07:15:34;;;;;;;7.32;1.40;;;10.90;95.50;;;;;;4969828;28;20051;-65
2022/02/08 07:18:02;;;;;;;4.40;0.98;;;10.90;95.50;;;;;;4968605;28;20533;-64
2022/02/08 07:20:32;;;;;;;8.07;1.13;;;10.90;95.50;;;;;;4969898;28;20462;-63
2022/02/08 07:22:59;;;;;;;7.45;1.13;;;10.80;95.50;;;;;;4969706;28;20051;-64
2022/02/08 07:25:32;;;;;;;3.60;1.10;;;10.80;95.60;;;;;;4970031;28;20058;-64
2022/02/08 07:27:59;;;;;;;10.55;1.17;;;10.80;95.40;;;;;;4936975;28;20050;-66
2022/02/08 07:30:29;;;;;;;6.07;1.05;;;10.80;95.60;;;;;;4969551;28;20046;-66
2022/02/08 07:32:55;;;;;;;6.28;0.98;;;10.80;95.60;;;;;;4969329;28;20478;-65
2022/02/08 07:38:02;;;;;;;8.38;1.60;;;10.80;95.60;;;;;;4969338;28;20078;-67
2022/02/08 07:42:56;;;;;;;3.58;1.27;;;10.70;95.70;;;;;;4968091;28;20621;-65
2022/02/08 07:45:23;;;;;;;9.27;1.77;;;10.70;95.70;;;;;;4969170;28;20501;-66
2022/02/08 07:47:51;;;;;;;7.05;1.48;;;10.70;95.70;;;;;;4952406;28;20058;-66
2022/02/08 07:50:25;;;;;;;5.15;1.25;;;10.70;95.80;;;;;;4967989;28;20521;-65
2022/02/08 07:52:53;;;;;;;3.92;0.98;;;10.70;95.80;;;;;;4968795;28;20462;-66
2022/02/08 07:55:20;;;;;;;9.13;1.40;;;10.70;95.70;;;;;;4968493;28;20051;-65
2022/02/08 07:57:47;;;;;;;14.90;1.48;;;10.70;95.70;;;;;;4968917;28;20142;-65
2022/02/08 08:00:15;;;;;;;7.07;1.30;;;10.70;95.80;;;;;;4968762;28;20061;-64
2022/02/08 08:02:43;;;;;;;11.88;2.25;;;10.80;95.70;;;;;;4948478;29;20102;-65
2022/02/08 08:05:10;;;;;;;5.57;1.30;;;10.80;95.70;;;;;;4962880;28;20051;-63
2022/02/08 08:07:37;;;;;;;10.15;1.27;;;10.80;95.70;;;;;;4967594;28;20047;-65
2022/02/08 08:10:06;;;;;;;8.32;2.20;;;10.80;95.50;;;;;;4968775;28;20142;-66
2022/02/08 08:12:35;;;;;;;12.38;3.28;;;10.80;95.60;;;;;;4968175;28;20114;-65
2022/02/08 08:15:12;;;;;;;9.32;2.10;;;10.90;95.50;;;;;;4968661;28;20073;-66
2022/02/08 08:17:54;;;;;;;7.30;1.52;;;10.90;95.70;;;;;;4951358;28;20054;-65
2022/02/08 08:20:21;;;;;;;7.60;3.08;;;10.90;95.60;;;;;;4966841;28;20550;-64
2022/02/08 08:22:48;;;;;;;9.00;3.20;;;10.90;95.50;;;;;;4964610;28;20516;-65
2022/02/08 08:25:15;;;;;;;21.23;5.22;;;10.90;95.40;;;;;;4966544;28;20513;-65
2022/02/08 08:27:42;;;;;;;9.10;3.25;;;10.90;95.50;;;;;;4966654;28;20078;-65
2022/02/08 08:30:09;;;;;;;14.32;2.30;;;11.00;95.40;;;;;;4950832;28;20129;-66
2022/02/08 08:32:39;;;;;;;8.57;2.70;;;11.10;95.60;;;;;;4967917;28;20062;-65
2022/02/08 08:35:08;;;;;;;9.07;1.98;;;11.00;95.30;;;;;;4950534;28;20055;-65
2022/02/08 08:37:40;;;;;;;8.25;2.47;;;11.00;95.30;;;;;;4957862;28;20058;-66
2022/02/08 08:40:17;;;;;;;13.80;3.05;;;11.10;95.40;;;;;;4968139;28;20051;-65
2022/02/08 08:42:56;;;;;;;10.27;1.67;;;11.10;95.30;;;;;;4957306;28;20569;-66
2022/02/08 08:53:19;;;;;;;9.70;2.22;;;11.30;95.00;;;;;;4968480;28;20086;-65
2022/02/08 08:55:46;;;;;;;9.40;1.88;;;11.30;95.00;;;;;;4968466;28;20490;-65
2022/02/08 08:58:12;;;;;;;9.60;2.67;;;11.30;95.00;;;;;;4968951;28;20050;-66
2022/02/08 09:00:39;;;;;;;5.15;1.10;;;11.40;94.80;;;;;;4968720;28;20094;-66
2022/02/08 09:03:06;;;;;;;9.80;1.08;;;11.40;95.20;;;;;;4978935;28;20055;-64
2022/02/08 09:05:33;;;;;;;3.65;1.08;;;11.40;95.20;;;;;;4978467;28;20047;-65
2022/02/08 09:08:00;;;;;;;6.32;1.15;;;11.40;94.90;;;;;;4977427;28;20490;-65
2022/02/08 09:10:36;;;;;;;15.00;2.22;;;11.50;94.80;;;;;;4973148;28;20528;-66
2022/02/08 09:13:21;;;;;;;4.88;0.93;;;11.50;95.00;;;;;;4971979;28;20494;-66
2022/02/08 09:15:59;;;;;;;10.50;1.27;;;11.50;94.90;;;;;;4971886;28;20055;-67
2022/02/08 09:24:17;;;;;;;7.68;1.80;;;11.50;94.70;;;;;;4970173;28;20498;-66
2022/02/08 09:29:42;;;;;;;8.55;3.10;;;11.60;94.70;;;;;;4971524;28;20159;-66
2022/02/08 09:32:18;;;;;;;12.32;2.63;;;11.60;94.80;;;;;;4971329;28;20473;-66
2022/02/08 09:34:46;;;;;;;8.48;2.75;;;11.60;94.70;;;;;;4971773;28;20208;-66
2022/02/08 09:37:16;;;;;;;6.97;1.77;;;11.60;94.80;;;;;;4970024;28;20038;-66
2022/02/08 09:39:44;;;;;;;5.30;1.60;;;11.70;94.90;;;;;;4971259;28;20059;-66
2022/02/08 09:42:12;;;;;;;6.68;2.45;;;11.70;94.70;;;;;;4970065;28;20057;-66
2022/02/08 09:44:39;;;;;;;8.95;2.25;;;11.60;94.60;;;;;;4971467;28;20533;-66
2022/02/08 09:47:16;;;;;;;19.63;2.95;;;11.60;94.60;;;;;;4970322;28;20138;-66
2022/02/08 09:49:53;;;;;;;5.70;2.78;;;11.60;94.80;;;;;;4971075;28;20090;-65
2022/02/08 09:52:24;;;;;;;9.23;1.95;;;11.60;94.70;;;;;;4971096;28;20039;-64
2022/02/08 09:54:52;;;;;;;9.73;1.45;;;11.50;94.90;;;;;;4971154;28;20050;-65
2022/02/08 09:57:19;;;;;;;14.82;3.55;;;11.50;94.80;;;;;;4970988;28;20057;-64
2022/02/08 09:59:47;;;;;;;8.98;2.42;;;11.50;94.90;;;;;;4970968;28;20059;-65
2022/02/08 10:02:18;;;;;;;13.13;3.25;;;11.50;94.80;;;;;;4971340;28;20051;-64
2022/02/08 10:04:44;;;;;;;12.35;3.50;;;11.50;94.70;;;;;;4970457;28;20059;-64
2022/02/08 10:07:15;;;;;;;13.57;3.60;;;11.50;94.80;;;;;;4971163;28;20102;-67
2022/02/08 10:09:42;;;;;;;9.65;3.78;;;11.50;94.90;;;;;;4970740;28;20054;-64
2022/02/08 10:12:10;;;;;;;13.05;4.43;;;11.40;94.80;;;;;;4970788;28;20058;-64
2022/02/08 10:18:52;;;;;;;9.20;4.32;;;11.40;94.80;;;;;;4970779;28;20086;-65
2022/02/08 10:23:00;;;;;;;5.63;2.13;;;11.40;95.00;;;;;;4970816;28;20050;-65
2022/02/08 10:25:44;;;;;;;11.23;1.63;;;11.40;95.00;;;;;;4968901;28;20051;-65
2022/02/08 10:28:27;;;;;;;8.93;1.75;;;11.40;95.00;;;;;;4970507;28;20106;-66
2022/02/08 10:39:04;;;;;;;10.80;2.00;;;11.60;95.00;;;;;;4970218;28;20047;-65
2022/02/08 10:41:34;;;;;;;6.90;2.58;;;11.70;94.90;;;;;;4970320;28;20176;-64
2022/02/08 10:44:03;;;;;;;8.23;3.15;;;11.80;94.60;;;;;;4970216;28;20055;-65
2022/02/08 10:46:30;;;;;;;8.82;1.08;;;11.90;94.70;;;;;;4970504;28;20110;-66
2022/02/08 10:49:01;;;;;;;5.10;0.95;;;11.90;94.20;;;;;;4969748;28;20465;-66
2022/02/08 10:51:28;;;;;;;8.18;2.33;;;12.00;94.00;;;;;;4969490;28;20074;-67
2022/02/08 10:54:00;;;;;;;4.35;0.90;;;12.10;94.20;;;;;;4970559;28;20074;-66
2022/02/08 10:56:31;;;;;;;12.95;2.17;;;12.10;93.90;;;;;;4970166;28;20090;-65
2022/02/08 11:00:04;;;;;;;7.40;1.40;;;12.10;94.40;;;;;;4969985;28;20074;-66
2022/02/08 11:02:16;;;;;;;8.38;2.30;;;12.10;93.70;;;;;;4954183;28;20422;-65
2022/02/08 11:04:51;;;;;;;8.70;1.00;;;12.20;94.00;;;;;;4952275;28;20094;-65
2022/02/08 11:07:57;;;;;;;8.50;1.40;;;12.20;94.30;;;;;;4968656;28;20053;-65
2022/02/08 11:10:32;;;;;;;3.75;1.20;;;12.30;93.60;;;;;;4968749;28;20086;-66
2022/02/08 11:13:16;;;;;;;1.40;0.68;;;12.30;93.30;;;;;;4954534;28;20501;-65
2022/02/08 11:21:29;;;;;;;4.85;1.08;;;12.30;93.80;;;;;;4969354;28;20113;-65
2022/02/08 11:26:42;;;;;;;5.30;0.80;;;12.40;93.50;;;;;;4969424;28;20300;-65
2022/02/08 11:29:54;;;;;;;23.65;1.92;;;12.40;93.30;;;;;;4969045;28;20047;-65
2022/02/08 11:32:52;;;;;;;5.35;0.82;;;12.40;93.60;;;;;;4966614;28;20549;-66
2022/02/08 11:51:46;;;;;;;5.40;1.45;;;12.60;93.50;;;;;;4969572;28;20050;-65
2022/02/08 12:07:27;;;;;;;15.35;2.20;;;12.50;93.90;;;;;;4967859;28;20047;-65
2022/02/08 12:10:07;;;;;;;12.52;1.45;;;12.50;93.80;;;;;;4967942;28;20059;-64
2022/02/08 12:54:06;;;;;;;1.88;1.13;;;12.60;93.40;;;;;;4972566;28;20078;-63
2022/02/08 12:59:26;;;;;;;5.20;1.02;;;12.60;93.50;;;;;;4972045;28;20074;-65
2022/02/08 13:02:14;;;;;;;3.05;0.73;;;12.60;93.30;;;;;;4971435;28;20501;-65
2022/02/08 14:03:25;;;;;;;4.40;1.55;;;12.60;93.00;;;;;;4971163;28;20047;-65
2022/02/08 14:08:42;;;;;;;6.57;1.70;;;12.60;92.80;;;;;;4969364;28;20074;-65
2022/02/08 14:19:30;;;;;;;3.03;1.25;;;12.60;92.90;;;;;;4970736;28;20050;-66
2022/02/08 14:30:09;;;;;;;3.25;1.02;;;12.50;93.10;;;;;;4970738;28;20537;-65
2022/02/08 15:13:09;;;;;;;2.05;0.60;;;12.40;93.20;;;;;;4969813;28;20909;-66
2022/02/08 15:16:08;;;;;;;10.40;0.70;;;12.50;93.20;;;;;;4963718;28;20215;-66
2022/02/08 15:18:35;;;;;;;6.25;0.90;;;12.50;93.30;;;;;;4624810;28;9999792;-66
2022/02/08 15:21:03;;;;;;;5.50;0.88;;;12.40;93.40;;;;;;4967767;28;20050;-66
2022/02/08 15:23:34;;;;;;;11.85;2.58;;;12.40;93.40;;;;;;4967608;28;20047;-66
2022/02/08 15:26:01;;;;;;;3.92;1.05;;;12.40;93.40;;;;;;4967716;28;20053;-66
2022/02/08 15:28:28;;;;;;;7.70;0.57;;;12.40;93.30;;;;;;4966427;28;20105;-67
2022/02/08 15:30:56;;;;;;;7.13;1.00;;;12.40;93.30;;;;;;4967258;28;20086;-66
2022/02/08 15:33:23;;;;;;;5.90;1.35;;;12.40;93.30;;;;;;4962961;28;20114;-66
2022/02/08 15:35:50;;;;;;;7.07;1.23;;;12.40;93.30;;;;;;4947826;28;20058;-66
2022/02/08 15:38:25;;;;;;;3.38;0.90;;;12.30;93.50;;;;;;4949011;28;20105;-68
2022/02/08 15:40:52;;;;;;;3.88;0.93;;;12.30;93.50;;;;;;4948373;28;20549;-65
2022/02/08 15:43:19;;;;;;;10.05;1.50;;;12.30;93.70;;;;;;4948108;28;20051;-66
2022/02/08 15:45:54;;;;;;;4.75;1.17;;;12.30;93.70;;;;;;4944437;29;20106;-66
2022/02/08 15:48:22;;;;;;;4.50;0.95;;;12.30;93.60;;;;;;4948381;28;20057;-65
2022/02/08 15:51:14;;;;;;;6.10;0.77;;;12.30;93.70;;;;;;4944925;29;20059;-68
2022/02/08 15:56:35;;;;;;;4.28;1.13;;;12.20;93.70;;;;;;4946629;29;20051;-67
2022/02/08 16:07:08;;;;;;;4.93;1.20;;;12.20;93.80;;;;;;4946706;29;20051;-68
2022/02/08 16:20:41;;;;;;;3.42;1.52;;;12.20;93.90;;;;;;4937101;29;20055;-67
2022/02/08 16:28:28;;;;;;;6.72;1.05;;;12.10;94.00;;;;;;4941780;29;20086;-66
2022/02/08 16:55:53;;;;;;;7.30;0.60;;;12.10;93.70;;;;;;4973461;28;20058;-67
2022/02/08 16:58:29;;;;;;;5.38;0.98;;;12.00;93.70;;;;;;4972832;28;20082;-67
2022/02/08 17:00:59;;;;;;;5.18;1.23;;;12.00;93.80;;;;;;4972960;28;20108;-66
2022/02/08 17:03:44;;;;;;;5.65;1.00;;;12.10;93.70;;;;;;4972302;28;20078;-68
2022/02/08 17:06:17;;;;;;;5.40;1.63;;;12.00;93.70;;;;;;4970403;28;20101;-66
2022/02/08 17:08:45;;;;;;;1.83;0.90;;;12.00;93.60;;;;;;4971734;28;20058;-68
2022/02/08 17:11:20;;;;;;;4.78;1.35;;;12.00;93.70;;;;;;4971447;28;20490;-66
2022/02/08 17:14:02;;;;;;;;;;;12.00;93.60;;;;;;4970968;28;20069;-67
2022/02/08 17:16:38;;;;;;;12.48;1.17;;;12.00;93.60;;;;;;4970823;28;19922;-68
2022/02/08 17:46:52;;;;;;;4.50;1.80;;;11.80;93.80;;;;;;4965920;28;20112;-66
2022/02/08 17:49:19;;;;;;;3.20;1.60;;;11.80;93.80;;;;;;4965677;28;20447;-67
2022/02/08 17:51:47;;;;;;;9.20;1.50;;;11.80;93.70;;;;;;4970367;28;20573;-66
2022/02/08 17:54:14;;;;;;;3.13;1.08;;;11.80;93.70;;;;;;4970583;28;20047;-67
2022/02/08 17:56:43;;;;;;;7.32;0.88;;;11.80;93.50;;;;;;4970795;28;20047;-66
2022/02/08 17:59:10;;;;;;;3.08;0.93;;;11.80;93.40;;;;;;4963519;28;20047;-67
2022/02/08 18:01:37;;;;;;;5.85;1.23;;;11.70;93.50;;;;;;4970771;28;20114;-66
2022/02/08 18:04:04;;;;;;;12.20;1.27;;;11.80;93.30;;;;;;4970419;28;20078;-67
2022/02/08 18:06:31;;;;;;;5.07;1.08;;;11.80;93.80;;;;;;4970533;28;20074;-66
2022/02/08 18:09:00;;;;;;;5.95;0.80;;;11.80;93.30;;;;;;4970320;28;20079;-67
2022/02/08 18:11:30;;;;;;;3.28;0.90;;;11.70;93.30;;;;;;4967750;28;20073;-68
2022/02/08 18:13:57;;;;;;;8.15;1.25;;;11.70;93.10;;;;;;4975734;28;20053;-67
2022/02/08 18:16:25;;;;;;;10.43;1.77;;;11.80;93.30;;;;;;4966154;28;20130;-66
2022/02/08 18:18:52;;;;;;;7.40;1.50;;;11.70;93.30;;;;;;4968501;28;20050;-67
2022/02/08 18:21:28;;;;;;;7.55;1.58;;;11.70;93.30;;;;;;4968926;28;20070;-66
2022/02/08 18:55:48;;;;;;;3.83;1.08;;;11.70;93.70;;;;;;4965518;28;20039;-67
2022/02/08 18:57:39;;;;;;;11.07;1.95;;;11.60;93.70;;;;;;4965387;28;20097;-68
2022/02/08 19:11:38;;;;;;;5.18;1.80;;;11.50;95.00;;;;;;4963752;28;20090;-69
2022/02/08 19:16:50;;;;;;;5.43;1.95;;;11.50;95.40;;;;;;4965786;28;20046;-64
2022/02/08 19:19:33;;;;;;;4.75;1.67;;;11.50;95.50;;;;;;4966971;28;20054;-66
2022/02/08 19:22:00;;;;;;;7.90;2.35;;;11.40;95.70;;;;;;4971269;28;20081;-66
2022/02/08 19:24:26;;;;;;;7.35;2.13;;;11.40;96.70;;;;;;4970846;28;21102;-65
2022/02/08 19:26:59;;;;;;;5.97;3.25;;;11.40;96.40;;;;;;4965118;28;20086;-65
2022/02/08 19:29:26;;;;;;;4.93;1.88;;;11.40;96.30;;;;;;4966691;28;20562;-64
2022/02/08 19:31:53;;;;;;;9.77;2.33;;;11.30;96.30;;;;;;4963362;28;20055;-64
2022/02/08 19:34:20;;;;;;;7.75;2.40;;;11.30;96.10;;;;;;4966003;28;20082;-65
2022/02/08 19:36:49;;;;;;;6.82;2.53;;;11.40;96.00;;;;;;4964329;28;20426;-66
2022/02/08 19:39:18;;;;;;;8.88;1.90;;;11.30;96.30;;;;;;4966190;28;20046;-66
2022/02/08 19:41:45;;;;;;;3.63;2.15;;;11.30;96.20;;;;;;4965503;28;20059;-66
2022/02/08 19:44:12;;;;;;;5.28;2.17;;;11.30;96.10;;;;;;4962653;28;20102;-66
2022/02/08 19:46:39;;;;;;;7.95;2.17;;;11.30;96.30;;;;;;4958476;28;20418;-67
2022/02/08 19:49:07;;;;;;;5.82;1.67;;;11.30;96.30;;;;;;4964597;28;20054;-66
2022/02/08 19:51:39;;;;;;;4.85;1.20;;;11.30;96.40;;;;;;4948720;28;20078;-65
2022/02/08 19:54:13;;;;;;;6.07;1.75;;;11.20;96.40;;;;;;4953305;28;20047;-65
2022/02/08 19:56:55;;;;;;;7.95;2.00;;;11.30;96.50;;;;;;4966430;28;20146;-67
2022/02/08 19:59:33;;;;;;;8.38;1.88;;;11.30;96.10;;;;;;4965467;28;20433;-64
2022/02/08 20:02:01;;;;;;;5.13;2.08;;;11.30;96.20;;;;;;4965475;28;20478;-65
2022/02/08 20:04:28;;;;;;;6.55;1.80;;;11.30;96.20;;;;;;4948425;28;20055;-64
2022/02/08 20:06:57;;;;;;;9.25;1.75;;;11.30;96.30;;;;;;4965728;28;20210;-67
2022/02/08 20:09:25;;;;;;;11.35;1.65;;;11.30;96.40;;;;;;4965816;28;20121;-66
2022/02/08 20:12:05;;;;;;;4.60;1.63;;;11.20;96.50;;;;;;4963794;28;20793;-65
2022/02/08 20:14:49;;;;;;;;;;;11.20;96.70;;;;;;4964291;28;20109;-65
2022/02/08 20:17:19;;;;;;;5.95;1.92;;;11.10;97.40;;;;;;4965647;28;19926;-65
2022/02/08 20:19:46;;;;;;;7.05;1.45;;;11.10;96.70;;;;;;4965419;28;20522;-66
2022/02/08 20:22:14;;;;;;;6.35;1.95;;;11.20;97.30;;;;;;4952994;28;20661;-65
2022/02/08 20:24:41;;;;;;;9.65;1.65;;;11.10;97.00;;;;;;4621310;28;10000550;-66
2022/02/08 20:29:36;;;;;;;7.68;2.35;;;11.10;96.90;;;;;;4964908;28;20097;-66
2022/02/08 20:32:03;;;;;;;5.70;2.25;;;11.00;97.40;;;;;;4965673;28;20079;-66
2022/02/08 20:34:30;;;;;;;6.13;1.83;;;10.90;97.50;;;;;;4961448;28;20059;-67
2022/02/08 20:36:59;;;;;;;4.93;1.88;;;11.00;97.30;;;;;;4965268;28;20058;-68
2022/02/08 20:39:26;;;;;;;7.65;2.28;;;10.90;97.70;;;;;;4965400;28;20058;-65
2022/02/08 20:41:55;;;;;;;5.03;1.30;;;10.90;97.70;;;;;;4964900;28;20138;-65
2022/02/08 20:44:24;;;;;;;9.60;3.13;;;10.90;98.00;;;;;;4964663;28;20047;-66
2022/02/08 20:47:05;;;;;;;7.38;1.63;;;10.90;98.00;;;;;;4955142;28;20147;-68
2022/02/08 20:49:34;;;;;;;8.90;1.77;;;10.80;98.40;;;;;;4963380;28;20227;-67
2022/02/08 20:52:01;;;;;;;5.57;2.08;;;10.80;98.20;;;;;;4956005;28;20078;-67